createdAt,value
2019-03-21T00:02:28.342Z,99.90
2019-03-21T00:05:01.400Z,99.80
2019-03-21T00:07:32.013Z,99.90
2019-03-21T00:10:34.890Z,99.90
2019-03-21T00:13:05.245Z,99.90
2019-03-21T00:15:38.975Z,99.90
2019-03-21T00:18:32.979Z,99.90
2019-03-21T00:21:03.562Z,99.90
2019-03-21T00:23:33.709Z,99.90
2019-03-21T00:26:04.174Z,99.90
2019-03-21T00:28:34.469Z,99.90
2019-03-21T00:31:05.009Z,99.80
2019-03-21T00:33:35.152Z,99.80
2019-03-21T00:36:05.569Z,99.80
2019-03-21T00:38:35.838Z,99.80
2019-03-21T00:41:06.890Z,99.90
2019-03-21T00:43:37.323Z,99.80
2019-03-21T00:46:07.910Z,99.80
2019-03-21T00:48:38.433Z,99.80
2019-03-21T00:51:08.937Z,99.80
2019-03-21T00:53:39.729Z,99.80
2019-03-21T00:56:09.922Z,99.70
2019-03-21T00:58:40.440Z,99.70
2019-03-21T01:01:11.066Z,99.80
2019-03-21T01:03:41.440Z,99.90
2019-03-21T01:06:11.763Z,99.90
2019-03-21T01:08:44.831Z,99.90
2019-03-21T01:11:15.349Z,99.90
2019-03-21T01:13:45.705Z,99.90
2019-03-21T01:16:16.658Z,99.90
2019-03-21T01:18:46.871Z,99.90
2019-03-21T01:21:17.497Z,99.90
2019-03-21T01:23:47.620Z,99.80
2019-03-21T01:26:18.554Z,99.80
2019-03-21T01:28:48.955Z,99.80
2019-03-21T01:31:19.421Z,99.80
2019-03-21T01:33:49.806Z,99.90
2019-03-21T01:36:23.895Z,99.80
2019-03-21T01:38:54.738Z,99.90
2019-03-21T01:41:25.390Z,99.90
2019-03-21T01:43:56.331Z,99.90
2019-03-21T01:46:26.584Z,99.90
2019-03-21T01:48:57.007Z,99.90
2019-03-21T01:51:27.246Z,99.80
2019-03-21T01:53:57.700Z,99.80
2019-03-21T01:56:29.014Z,99.80
2019-03-21T01:58:59.490Z,99.70
2019-03-21T02:01:29.778Z,99.90
2019-03-21T02:04:00.682Z,99.90
2019-03-21T02:06:31.322Z,99.90
2019-03-21T02:09:06.340Z,99.90
2019-03-21T02:11:38.690Z,99.80
2019-03-21T02:14:08.909Z,99.70
2019-03-21T02:16:39.309Z,99.90
2019-03-21T02:19:11.058Z,99.80
2019-03-21T02:21:41.462Z,99.70
2019-03-21T02:24:12.117Z,99.80
2019-03-21T02:26:43.411Z,99.80
2019-03-21T02:29:13.623Z,99.70
2019-03-21T02:31:44.623Z,99.70
2019-03-21T02:34:14.952Z,99.70
2019-03-21T02:36:45.902Z,99.60
2019-03-21T02:39:16.388Z,99.60
2019-03-21T02:41:46.622Z,99.60
2019-03-21T02:44:16.965Z,99.60
2019-03-21T02:46:47.661Z,99.60
2019-03-21T02:49:18.470Z,99.60
2019-03-21T02:51:49.050Z,99.60
2019-03-21T02:54:19.491Z,99.70
2019-03-21T02:56:50.155Z,99.60
2019-03-21T02:59:21.335Z,99.60
2019-03-21T03:01:51.626Z,99.60
2019-03-21T03:04:21.695Z,99.60
2019-03-21T03:06:52.975Z,99.60
2019-03-21T03:09:24.182Z,99.70
2019-03-21T03:11:56.251Z,99.90
2019-03-21T03:14:27.527Z,99.90
2019-03-21T03:16:57.761Z,99.90
2019-03-21T03:19:29.772Z,99.90
2019-03-21T03:22:00.431Z,99.90
2019-03-21T03:24:32.691Z,99.80
2019-03-21T03:27:03.070Z,99.70
2019-03-21T03:29:34.375Z,99.60
2019-03-21T03:32:06.337Z,99.60
2019-03-21T03:34:36.982Z,99.60
2019-03-21T03:37:09.196Z,99.60
2019-03-21T03:39:39.339Z,99.50
2019-03-21T03:42:10.042Z,99.60
2019-03-21T03:44:40.221Z,99.60
2019-03-21T03:47:12.383Z,99.50
2019-03-21T03:49:42.744Z,99.60
2019-03-21T03:52:13.048Z,99.50
2019-03-21T03:54:44.239Z,99.50
2019-03-21T03:57:14.772Z,99.50
2019-03-21T03:59:46.203Z,99.60
2019-03-21T04:02:17.108Z,99.50
2019-03-21T04:04:47.437Z,99.60
2019-03-21T04:07:17.916Z,99.80
2019-03-21T04:09:48.128Z,99.60
2019-03-21T04:12:18.284Z,99.90
2019-03-21T04:14:51.284Z,99.90
2019-03-21T04:17:21.809Z,99.90
2019-03-21T04:19:52.123Z,99.70
2019-03-21T04:22:22.488Z,99.60
2019-03-21T04:24:52.600Z,99.50
2019-03-21T04:27:23.841Z,99.50
2019-03-21T04:29:54.439Z,99.50
2019-03-21T04:32:24.677Z,99.50
2019-03-21T04:34:54.872Z,99.40
2019-03-21T04:37:25.768Z,99.40
2019-03-21T04:39:56.172Z,99.40
2019-03-21T04:42:26.344Z,99.40
2019-03-21T04:44:57.933Z,99.40
2019-03-21T04:47:30.455Z,99.50
2019-03-21T04:50:04.231Z,99.50
2019-03-21T04:52:34.424Z,99.50
2019-03-21T04:55:06.318Z,99.50
2019-03-21T04:57:36.588Z,99.50
2019-03-21T05:00:09.976Z,99.40
2019-03-21T05:02:40.043Z,99.40
2019-03-21T05:05:10.832Z,99.50
2019-03-21T05:07:41.073Z,99.90
2019-03-21T05:10:13.395Z,99.70
2019-03-21T05:12:43.559Z,99.70
2019-03-21T05:15:16.333Z,99.60
2019-03-21T05:17:48.910Z,99.50
2019-03-21T05:20:21.551Z,99.40
2019-03-21T05:22:51.903Z,99.40
2019-03-21T05:25:22.015Z,99.40
2019-03-21T05:27:52.391Z,99.40
2019-03-21T05:30:41.207Z,99.40
2019-03-21T05:33:12.620Z,99.40
2019-03-21T05:35:42.903Z,99.70
2019-03-21T05:38:13.137Z,99.40
2019-03-21T05:40:43.603Z,99.40
2019-03-21T05:43:17.114Z,99.40
2019-03-21T05:45:47.244Z,99.30
2019-03-21T05:48:17.935Z,99.30
2019-03-21T05:50:48.240Z,99.10
2019-03-21T05:53:18.321Z,99.20
2019-03-21T05:55:48.458Z,99.10
2019-03-21T05:58:19.892Z,99.00
2019-03-21T06:00:51.447Z,99.00
2019-03-21T06:03:24.581Z,98.90
2019-03-21T06:06:02.734Z,98.90
2019-03-21T06:08:36.212Z,98.70
2019-03-21T06:11:07.739Z,98.20
2019-03-21T06:13:39.640Z,97.60
2019-03-21T06:16:11.144Z,96.70
2019-03-21T06:19:06.797Z,96.20
2019-03-21T06:22:20.540Z,95.90
2019-03-21T06:25:15.779Z,96.10
2019-03-21T06:27:44.689Z,95.80
2019-03-21T06:30:15.634Z,95.30
2019-03-21T06:32:46.306Z,94.60
2019-03-21T06:35:25.544Z,93.80
2019-03-21T06:37:55.775Z,93.30
2019-03-21T06:40:26.251Z,92.80
2019-03-21T06:45:26.155Z,91.90
2019-03-21T06:47:56.392Z,92.10
2019-03-21T06:50:28.059Z,92.30
2019-03-21T06:52:58.664Z,93.20
2019-03-21T06:55:29.311Z,94.10
2019-03-21T06:57:59.491Z,94.50
2019-03-21T07:00:29.577Z,94.30
2019-03-21T07:02:59.819Z,94.50
2019-03-21T07:05:30.296Z,94.30
2019-03-21T07:08:01.507Z,94.10
2019-03-21T07:10:33.635Z,95.20
2019-03-21T07:13:05.711Z,94.60
2019-03-21T07:15:35.907Z,93.60
2019-03-21T07:18:06.168Z,93.50
2019-03-21T07:20:36.376Z,94.60
2019-03-21T07:23:06.659Z,94.30
2019-03-21T07:25:38.370Z,93.50
2019-03-21T07:28:08.536Z,94.70
2019-03-21T07:30:40.912Z,95.00
2019-03-21T07:33:11.170Z,95.70
2019-03-21T07:35:42.296Z,94.80
2019-03-21T07:38:12.735Z,94.40
2019-03-21T07:40:44.392Z,95.00
2019-03-21T07:43:16.095Z,93.80
2019-03-21T07:45:46.404Z,94.30
2019-03-21T07:48:16.710Z,93.70
2019-03-21T07:50:46.947Z,94.20
2019-03-21T07:53:18.402Z,93.60
2019-03-21T07:55:48.803Z,94.30
2019-03-21T07:58:19.176Z,96.10
2019-03-21T08:00:49.269Z,96.80
2019-03-21T08:03:19.580Z,97.50
2019-03-21T08:05:50.955Z,95.50
2019-03-21T08:08:21.485Z,97.60
2019-03-21T08:10:53.164Z,97.30
2019-03-21T08:13:23.292Z,96.50
2019-03-21T08:15:53.556Z,96.20
2019-03-21T08:18:23.659Z,97.20
2019-03-21T08:20:58.568Z,95.90
2019-03-21T08:23:26.464Z,94.20
2019-03-21T08:25:56.667Z,95.60
2019-03-21T08:28:27.151Z,91.90
2019-03-21T08:31:16.749Z,93.80
2019-03-21T08:33:48.095Z,94.10
2019-03-21T08:36:20.175Z,92.50
2019-03-21T08:38:53.179Z,92.50
2019-03-21T08:41:23.539Z,94.60
2019-03-21T08:43:53.974Z,94.90
2019-03-21T08:46:25.960Z,92.70
2019-03-21T08:48:58.015Z,92.50
2019-03-21T08:51:28.172Z,92.10
2019-03-21T08:53:58.495Z,92.50
2019-03-21T08:56:28.580Z,92.30
2019-03-21T08:58:59.645Z,92.70
2019-03-21T09:01:29.734Z,91.30
2019-03-21T09:04:00.121Z,92.80
2019-03-21T09:06:30.332Z,92.10
2019-03-21T09:09:00.933Z,93.60
2019-03-21T09:11:31.159Z,93.00
2019-03-21T09:14:02.075Z,92.40
2019-03-21T09:16:32.320Z,92.00
2019-03-21T09:19:04.255Z,91.70
2019-03-21T09:21:34.512Z,92.40
2019-03-21T09:24:04.916Z,92.10
2019-03-21T09:26:35.085Z,93.90
2019-03-21T09:29:05.187Z,92.20
2019-03-21T09:31:35.519Z,91.30
2019-03-21T09:34:05.979Z,92.20
2019-03-21T09:36:36.475Z,90.70
2019-03-21T09:39:08.312Z,92.00
2019-03-21T09:41:38.616Z,90.70
2019-03-21T09:44:10.244Z,93.00
2019-03-21T09:46:50.478Z,93.50
2019-03-21T09:49:14.131Z,91.70
2019-03-21T09:51:45.531Z,93.30
2019-03-21T09:54:15.943Z,93.30
2019-03-21T09:56:48.039Z,92.10
2019-03-21T09:59:18.292Z,90.70
2019-03-21T10:01:48.544Z,91.70
2019-03-21T10:04:18.749Z,93.50
2019-03-21T10:06:49.839Z,93.10
2019-03-21T10:09:21.403Z,92.00
2019-03-21T10:11:53.079Z,91.80
2019-03-21T10:14:25.606Z,91.30
2019-03-21T10:16:55.697Z,91.20
2019-03-21T10:19:25.861Z,91.40
2019-03-21T10:21:57.611Z,90.50
2019-03-21T10:24:29.631Z,91.20
2019-03-21T10:26:59.864Z,90.00
2019-03-21T10:29:31.933Z,91.80
2019-03-21T10:32:13.660Z,90.60
2019-03-21T10:34:34.263Z,90.60
2019-03-21T10:37:05.523Z,90.20
2019-03-21T10:39:37.188Z,91.80
2019-03-21T10:42:07.442Z,89.60
2019-03-21T10:44:39.724Z,88.80
2019-03-21T10:47:10.163Z,90.30
2019-03-21T10:49:40.538Z,98.50
2019-03-21T10:52:10.863Z,99.70
2019-03-21T10:54:41.054Z,99.80
2019-03-21T10:57:11.151Z,99.90
2019-03-21T11:02:10.772Z,84.10
2019-03-21T11:04:40.884Z,87.10
2019-03-21T11:07:09.194Z,88.10
2019-03-21T11:09:39.496Z,85.50
2019-03-21T11:12:09.706Z,86.20
2019-03-21T11:14:39.849Z,89.30
2019-03-21T11:17:11.532Z,89.90
2019-03-21T11:19:41.724Z,85.60
2019-03-21T11:22:11.830Z,87.70
2019-03-21T11:24:43.747Z,90.20
2019-03-21T11:27:15.850Z,85.50
2019-03-21T11:29:45.931Z,83.60
2019-03-21T11:32:16.507Z,86.00
2019-03-21T11:34:46.679Z,87.10
2019-03-21T11:37:18.791Z,86.50
2019-03-21T11:39:49.394Z,85.50
2019-03-21T11:42:21.117Z,87.40
2019-03-21T11:44:51.417Z,90.80
2019-03-21T11:47:22.053Z,90.80
2019-03-21T11:49:53.806Z,90.10
2019-03-21T11:52:24.303Z,90.80
2019-03-21T11:54:56.045Z,87.90
2019-03-21T11:57:27.495Z,90.30
2019-03-21T11:59:59.487Z,91.20
2019-03-21T12:02:29.914Z,91.40
2019-03-21T12:05:00.518Z,90.70
2019-03-21T12:07:30.728Z,90.50
2019-03-21T12:10:01.347Z,90.50
2019-03-21T12:12:32.042Z,87.90
2019-03-21T12:15:02.107Z,91.50
2019-03-21T12:17:33.347Z,93.80
2019-03-21T12:20:03.871Z,93.30
2019-03-21T12:22:34.006Z,90.50
2019-03-21T12:25:06.075Z,91.60
2019-03-21T12:27:37.467Z,91.70
2019-03-21T12:30:08.961Z,90.60
2019-03-21T12:32:40.153Z,87.80
2019-03-21T12:35:13.161Z,89.50
2019-03-21T12:37:43.318Z,88.20
2019-03-21T12:40:13.813Z,90.10
2019-03-21T12:42:44.147Z,90.50
2019-03-21T12:45:14.655Z,89.60
2019-03-21T12:47:47.091Z,83.70
2019-03-21T12:50:18.381Z,82.90
2019-03-21T12:52:48.607Z,87.10
2019-03-21T12:55:18.820Z,90.30
2019-03-21T12:57:48.991Z,87.60
2019-03-21T13:00:30.733Z,87.10
2019-03-21T13:03:01.086Z,88.70
2019-03-21T13:05:31.188Z,86.70
2019-03-21T13:08:01.635Z,83.70
2019-03-21T13:10:34.077Z,85.50
2019-03-21T13:13:05.012Z,85.70
2019-03-21T13:15:36.977Z,88.60
2019-03-21T13:18:09.296Z,88.40
2019-03-21T13:20:39.860Z,85.20
2019-03-21T13:23:09.955Z,87.30
2019-03-21T13:25:40.343Z,83.90
2019-03-21T13:28:10.687Z,83.40
2019-03-21T13:30:43.691Z,82.40
2019-03-21T13:33:15.139Z,84.70
2019-03-21T13:35:45.275Z,85.00
2019-03-21T13:38:15.644Z,90.30
2019-03-21T13:40:45.731Z,87.40
2019-03-21T13:43:15.983Z,87.30
2019-03-21T13:45:46.784Z,87.70
2019-03-21T13:48:18.748Z,87.60
2019-03-21T13:50:49.015Z,89.50
2019-03-21T13:53:19.348Z,87.60
2019-03-21T13:55:49.677Z,90.10
2019-03-21T13:58:21.099Z,84.60
2019-03-21T14:00:52.465Z,93.50
2019-03-21T14:03:25.304Z,87.00
2019-03-21T14:05:55.386Z,86.60
2019-03-21T14:08:26.918Z,91.60
2019-03-21T14:10:57.079Z,85.40
2019-03-21T14:13:29.496Z,86.70
2019-03-21T14:16:01.721Z,87.40
2019-03-21T14:18:33.143Z,91.10
2019-03-21T14:21:03.212Z,87.00
2019-03-21T14:23:42.793Z,85.30
2019-03-21T14:26:07.759Z,90.10
2019-03-21T14:28:39.691Z,90.80
2019-03-21T14:31:11.770Z,92.20
2019-03-21T14:33:43.535Z,86.60
2019-03-21T14:36:15.146Z,87.90
2019-03-21T14:38:45.229Z,89.20
2019-03-21T14:41:15.535Z,87.70
2019-03-21T14:43:47.430Z,92.90
2019-03-21T14:46:20.492Z,87.70
2019-03-21T14:48:50.903Z,85.80
2019-03-21T14:51:21.995Z,91.60
2019-03-21T14:53:52.260Z,87.80
2019-03-21T14:56:22.807Z,87.50
2019-03-21T14:58:53.098Z,88.40
2019-03-21T15:01:23.785Z,91.10
2019-03-21T15:03:54.015Z,89.00
2019-03-21T15:06:24.238Z,89.60
2019-03-21T15:08:54.499Z,89.70
2019-03-21T15:11:25.252Z,90.40
2019-03-21T15:13:57.996Z,91.20
2019-03-21T15:16:29.296Z,92.00
2019-03-21T15:19:01.230Z,91.50
2019-03-21T15:21:32.774Z,90.20
2019-03-21T15:24:04.032Z,90.90
2019-03-21T15:26:35.073Z,90.30
2019-03-21T15:29:05.203Z,92.50
2019-03-21T15:31:35.622Z,92.10
2019-03-21T15:34:05.753Z,96.40
2019-03-21T15:36:36.143Z,92.30
2019-03-21T15:39:09.098Z,94.40
2019-03-21T15:41:40.662Z,96.30
2019-03-21T15:44:11.074Z,90.20
2019-03-21T15:46:41.637Z,90.10
2019-03-21T15:49:11.989Z,91.10
2019-03-21T15:51:43.009Z,91.90
2019-03-21T15:54:13.198Z,89.20
2019-03-21T15:56:43.353Z,90.60
2019-03-21T15:59:13.746Z,96.20
2019-03-21T16:01:44.181Z,95.50
2019-03-21T16:04:14.565Z,97.40
2019-03-21T16:06:45.011Z,95.00
2019-03-21T16:09:15.717Z,94.50
2019-03-21T16:11:46.068Z,94.90
2019-03-21T16:14:16.485Z,94.80
2019-03-21T16:16:46.977Z,91.30
2019-03-21T16:19:17.321Z,97.90
2019-03-21T16:21:48.547Z,97.00
2019-03-21T16:24:19.532Z,96.00
2019-03-21T16:26:49.877Z,95.80
2019-03-21T16:29:19.997Z,95.80
2019-03-21T16:31:50.921Z,96.90
2019-03-21T16:34:21.225Z,97.60
2019-03-21T16:36:51.737Z,97.00
2019-03-21T16:39:21.844Z,95.80
2019-03-21T16:41:52.403Z,93.20
2019-03-21T16:44:22.649Z,97.80
2019-03-21T16:46:53.101Z,95.80
2019-03-21T16:49:24.264Z,97.10
2019-03-21T16:51:56.466Z,97.00
2019-03-21T16:54:30.144Z,98.10
2019-03-21T16:56:59.558Z,98.40
2019-03-21T16:59:29.865Z,95.00
2019-03-21T17:02:00.970Z,98.70
2019-03-21T17:04:31.886Z,98.50
2019-03-21T17:07:02.241Z,98.30
2019-03-21T17:09:32.604Z,96.00
2019-03-21T17:12:03.064Z,98.10
2019-03-21T17:14:33.660Z,97.90
2019-03-21T17:17:04.035Z,97.00
2019-03-21T17:19:36.010Z,98.30
2019-03-21T17:22:07.546Z,98.30
2019-03-21T17:24:38.161Z,98.40
2019-03-21T17:27:08.481Z,97.40
2019-03-21T17:29:38.592Z,98.50
2019-03-21T17:32:08.929Z,98.30
2019-03-21T17:34:39.103Z,98.10
2019-03-21T17:37:09.476Z,98.50
2019-03-21T17:39:39.785Z,98.30
2019-03-21T17:42:10.060Z,98.50
2019-03-21T17:44:40.426Z,97.70
2019-03-21T17:47:10.930Z,98.50
2019-03-21T17:49:41.286Z,98.40
2019-03-21T17:52:11.692Z,98.30
2019-03-21T17:54:42.072Z,98.20
2019-03-21T17:57:12.715Z,98.30
2019-03-21T17:59:43.281Z,98.20
2019-03-21T18:02:13.817Z,98.30
2019-03-21T18:04:44.361Z,98.30
2019-03-21T18:07:14.857Z,98.30
2019-03-21T18:09:45.753Z,98.10
2019-03-21T18:12:16.030Z,96.40
2019-03-21T18:14:46.376Z,95.80
2019-03-21T18:17:17.066Z,95.90
2019-03-21T18:19:47.939Z,95.90
2019-03-21T18:22:18.267Z,96.20
2019-03-21T18:24:53.754Z,96.90
2019-03-21T18:27:20.949Z,97.30
2019-03-21T18:29:51.622Z,97.40
2019-03-21T18:32:22.356Z,97.40
2019-03-21T18:34:52.506Z,97.50
2019-03-21T18:37:24.778Z,97.50
2019-03-21T18:39:57.116Z,97.60
2019-03-21T18:42:28.782Z,97.60
2019-03-21T18:44:59.295Z,97.70
2019-03-21T18:47:30.215Z,97.80
2019-03-21T18:50:00.561Z,97.80
2019-03-21T18:52:30.952Z,97.90
2019-03-21T18:55:06.595Z,97.90
2019-03-21T18:57:33.306Z,97.90
2019-03-21T19:00:04.637Z,97.90
2019-03-21T19:02:34.958Z,98.00
2019-03-21T19:05:06.024Z,98.00
2019-03-21T19:07:36.137Z,98.10
2019-03-21T19:10:08.421Z,98.10
2019-03-21T19:12:39.374Z,98.20
2019-03-21T19:15:11.255Z,98.20
2019-03-21T19:17:41.624Z,98.30
2019-03-21T19:20:12.361Z,98.30
2019-03-21T19:22:42.463Z,98.30
2019-03-21T19:25:18.996Z,98.30
2019-03-21T19:27:46.075Z,98.30
2019-03-21T19:30:18.444Z,98.40
2019-03-21T19:32:48.813Z,98.40
2019-03-21T19:35:19.212Z,98.40
2019-03-21T19:37:51.035Z,98.50
2019-03-21T19:40:21.241Z,98.40
2019-03-21T19:42:52.836Z,98.50
2019-03-21T19:45:24.015Z,98.50
2019-03-21T19:47:54.135Z,98.50
2019-03-21T19:50:25.663Z,98.60
2019-03-21T19:52:56.147Z,98.60
2019-03-21T19:55:31.115Z,98.70
2019-03-21T19:57:59.593Z,98.70
2019-03-21T20:00:31.911Z,98.60
2019-03-21T20:03:03.307Z,98.70
2019-03-21T20:05:33.643Z,98.70
2019-03-21T20:08:04.065Z,98.70
2019-03-21T20:10:34.291Z,98.70
2019-03-21T20:13:04.724Z,98.70
2019-03-21T20:15:36.781Z,98.70
2019-03-21T20:18:07.202Z,98.70
2019-03-21T20:20:39.691Z,98.80
2019-03-21T20:23:10.003Z,98.90
2019-03-21T20:25:43.038Z,99.00
2019-03-21T20:28:12.575Z,98.90
2019-03-21T20:30:42.860Z,98.90
2019-03-21T20:33:12.982Z,98.90
2019-03-21T20:35:43.320Z,98.80
2019-03-21T20:38:13.578Z,98.80
2019-03-21T20:40:44.975Z,98.80
2019-03-21T20:43:15.475Z,98.90
2019-03-21T20:45:45.736Z,98.90
2019-03-21T20:48:15.996Z,98.90
2019-03-21T20:50:46.269Z,98.90
2019-03-21T20:53:19.721Z,98.80
2019-03-21T20:55:53.872Z,98.80
2019-03-21T20:58:22.971Z,98.90
2019-03-21T21:00:53.316Z,98.90
2019-03-21T21:03:23.384Z,98.90
2019-03-21T21:05:53.755Z,98.90
2019-03-21T21:08:24.032Z,98.90
2019-03-21T21:10:54.266Z,98.90
2019-03-21T21:13:24.699Z,99.00
2019-03-21T21:15:55.022Z,99.00
2019-03-21T21:18:25.505Z,98.90
2019-03-21T21:20:56.863Z,98.90
2019-03-21T21:23:28.839Z,98.90
2019-03-21T21:26:05.361Z,99.00
2019-03-21T21:28:33.592Z,99.00
2019-03-21T21:31:03.838Z,98.90
2019-03-21T21:33:33.921Z,99.00
2019-03-21T21:36:04.216Z,98.90
2019-03-21T21:38:36.215Z,99.00
2019-03-21T21:41:06.812Z,99.00
2019-03-21T21:43:37.449Z,99.00
2019-03-21T21:46:07.614Z,98.90
2019-03-21T21:48:38.947Z,98.90
2019-03-21T21:51:09.230Z,98.90
2019-03-21T21:53:39.788Z,99.00
2019-03-21T21:56:17.506Z,99.00
2019-03-21T21:58:43.131Z,99.00
2019-03-21T22:01:13.762Z,99.00
2019-03-21T22:03:45.793Z,99.00
2019-03-21T22:06:16.059Z,99.00
2019-03-21T22:08:48.535Z,99.00
2019-03-21T22:11:18.854Z,99.00
2019-03-21T22:13:49.101Z,99.00
2019-03-21T22:16:19.271Z,99.10
2019-03-21T22:18:49.390Z,99.10
2019-03-21T22:21:19.631Z,99.00
2019-03-21T22:23:50.923Z,99.10
2019-03-21T22:26:29.548Z,99.00
2019-03-21T22:28:53.539Z,99.00
2019-03-21T22:31:23.671Z,99.00
2019-03-21T22:33:53.938Z,99.00
2019-03-21T22:36:24.537Z,99.00
2019-03-21T22:38:54.858Z,99.10
2019-03-21T22:41:25.057Z,99.10
2019-03-21T22:43:55.384Z,99.00
2019-03-21T22:46:25.631Z,99.10
2019-03-21T22:48:56.875Z,99.10
2019-03-21T22:51:27.100Z,99.00
2019-03-21T22:53:59.207Z,99.00
2019-03-21T22:56:40.543Z,99.00
2019-03-21T22:59:03.557Z,99.00
2019-03-21T23:01:33.991Z,99.00
2019-03-21T23:04:05.735Z,99.00
2019-03-21T23:06:36.588Z,99.00
2019-03-21T23:09:08.274Z,99.10
2019-03-21T23:11:38.583Z,99.00
2019-03-21T23:14:10.619Z,99.10
2019-03-21T23:16:44.220Z,99.10
2019-03-21T23:19:14.986Z,99.10
2019-03-21T23:21:45.279Z,99.10
2019-03-21T23:24:16.839Z,99.00
2019-03-21T23:26:52.936Z,99.10
2019-03-21T23:29:18.933Z,99.10
2019-03-21T23:31:50.179Z,99.10
2019-03-21T23:34:20.451Z,99.10
2019-03-21T23:36:52.267Z,99.10
2019-03-21T23:39:22.491Z,99.10
2019-03-21T23:41:52.675Z,99.20
2019-03-21T23:44:22.923Z,99.10
2019-03-21T23:46:54.247Z,99.20
2019-03-21T23:49:24.339Z,99.10
2019-03-21T23:51:55.521Z,99.10
2019-03-21T23:54:27.174Z,99.10
2019-03-21T23:57:04.451Z,99.40
2019-03-21T23:59:29.384Z,99.10
